Sharp Park, California
Current Conditions -  °F | °C
As of 8:56 PM on Friday 24 Oct 2014 (Local Time) from KSFO Reporting Station
Scattered Clouds Scattered Clouds  
Wind Chill: 67°   Ceiling: Unl
Heat Index: 67°   Visibility: 10mi
Dew Point: 56°   Wind: 9mph
Humidity: 68%   Direction: 170°S
Pressure: 29.9"   Gusts: NA
Location:  37.6009°N, 122.483°W
Report Text: KSFO 250356Z 17008KT 10SM FEW025 SCT180 19/13 A2990 RMK AO2 SLP126 T01940133
Loading
Personal Weather Stations






























Interactive Weather Map
Tropical Storm Tracking
New forecast layout! Learn more

10-Day Weather Forecast

Advertisements
Track Severe Weather on mobile